Time;durP1;ratioP1;P1;durP2;ratioP2;P2;SDS_P1;SDS_P2;PMS_P1;PMS_P2;Temp;Humidity;BMP_temperature;BMP_pressure;BME280_temperature;BME280_humidity;BME280_pressure;Samples;Min_cycle;Max_cycle;Signal;HPM_P1;HPM_P2
2023/11/02 00:01:25;;;;;;;54.33;11.07;;;13.10;94.10;;;;;;5086411;28;20032;-57
2023/11/02 00:03:51;;;;;;;61.33;10.60;;;13.10;94.10;;;;;;5068202;28;20391;-56
2023/11/02 00:06:33;;;;;;;53.22;10.27;;;13.00;94.10;;;;;;5052052;28;20021;-57
2023/11/02 00:09:10;;;;;;;51.25;10.48;;;13.00;94.20;;;;;;5086218;28;20048;-56
2023/11/02 00:11:59;;;;;;;49.55;9.43;;;13.00;94.20;;;;;;5086181;28;20028;-57
2023/11/02 00:14:35;;;;;;;42.47;9.07;;;13.00;94.30;;;;;;5085933;28;20029;-56
2023/11/02 00:17:01;;;;;;;39.85;10.05;;;12.90;94.20;;;;;;5068400;28;20046;-56
2023/11/02 00:19:35;;;;;;;43.78;8.88;;;13.00;94.30;;;;;;5051701;28;20021;-57
2023/11/02 00:22:10;;;;;;;45.15;9.10;;;12.90;94.30;;;;;;5085949;28;20033;-57
2023/11/02 00:24:43;;;;;;;40.33;8.88;;;12.90;94.40;;;;;;5068203;28;20087;-57
2023/11/02 00:27:10;;;;;;;37.70;8.88;;;12.90;94.40;;;;;;5068437;28;20032;-57
2023/11/02 00:29:38;;;;;;;32.88;8.88;;;12.90;94.40;;;;;;5085644;28;20044;-57
2023/11/02 00:32:04;;;;;;;37.17;9.23;;;12.80;94.40;;;;;;5068643;28;20031;-57
2023/11/02 00:34:30;;;;;;;42.08;9.02;;;12.80;94.40;;;;;;5085661;28;20064;-57
2023/11/02 00:36:57;;;;;;;30.42;8.10;;;12.80;94.40;;;;;;5067861;28;20047;-57
2023/11/02 00:39:23;;;;;;;36.13;9.25;;;12.90;94.50;;;;;;5035223;28;20473;-57
2023/11/02 00:41:48;;;;;;;40.47;9.00;;;12.80;94.40;;;;;;5067977;28;20028;-57
2023/11/02 00:44:17;;;;;;;31.58;8.60;;;12.80;94.40;;;;;;5068138;28;20117;-57
2023/11/02 00:46:44;;;;;;;40.88;9.25;;;12.80;94.40;;;;;;5068707;28;20028;-57
2023/11/02 00:49:22;;;;;;;35.67;8.93;;;12.80;94.30;;;;;;5067804;28;20050;-57
2023/11/02 00:51:55;;;;;;;37.53;8.45;;;12.80;94.30;;;;;;5069498;28;20031;-57
2023/11/02 00:54:59;;;;;;;32.08;8.43;;;12.80;94.30;;;;;;5067880;28;20032;-57
2023/11/02 00:57:36;;;;;;;28.50;8.18;;;12.70;94.40;;;;;;4968543;28;20022;-57
2023/11/02 01:00:02;;;;;;;24.75;7.45;;;12.70;94.40;;;;;;5056977;28;20035;-57
2023/11/02 01:02:34;;;;;;;30.60;8.00;;;12.70;94.50;;;;;;5067879;28;20032;-56
2023/11/02 01:05:03;;;;;;;29.20;7.72;;;12.70;94.50;;;;;;5051251;28;20400;-57
2023/11/02 01:07:28;;;;;;;37.67;8.05;;;12.70;94.50;;;;;;5051802;28;20103;-57
2023/11/02 01:09:56;;;;;;;26.73;7.65;;;12.70;94.60;;;;;;5067947;28;20094;-57
2023/11/02 01:12:35;;;;;;;25.80;6.38;;;12.90;94.90;;;;;;5085754;28;20021;-56
2023/11/02 01:15:03;;;;;;;28.90;6.05;;;12.70;94.60;;;;;;5068452;28;20037;-57
2023/11/02 01:17:30;;;;;;;26.55;7.60;;;12.60;94.90;;;;;;5034772;28;20040;-57
2023/11/02 01:20:08;;;;;;;20.05;6.70;;;12.60;94.60;;;;;;5067841;28;20029;-56
2023/11/02 01:23:05;;;;;;;34.22;7.72;;;12.60;94.60;;;;;;5052479;28;20495;-57
2023/11/02 01:25:41;;;;;;;24.10;6.82;;;12.60;94.70;;;;;;5067423;28;20028;-57
2023/11/02 01:28:07;;;;;;;25.35;6.70;;;12.60;94.70;;;;;;5053801;28;20104;-57
2023/11/02 01:31:14;;;;;;;34.08;7.30;;;12.60;94.70;;;;;;5071303;28;20044;-57
2023/11/02 01:33:40;;;;;;;27.40;6.55;;;12.50;94.70;;;;;;5088210;28;20041;-57
2023/11/02 01:36:06;;;;;;;22.70;6.13;;;12.50;94.80;;;;;;5088923;28;20430;-57
2023/11/02 01:38:32;;;;;;;21.60;7.32;;;12.50;94.80;;;;;;5088861;28;20036;-57
2023/11/02 01:41:14;;;;;;;25.15;7.13;;;12.50;94.80;;;;;;5054420;28;20025;-56
2023/11/02 01:43:55;;;;;;;30.98;6.57;;;12.50;94.70;;;;;;5071159;28;20024;-57
2023/11/02 01:46:28;;;;;;;21.00;6.32;;;12.50;94.70;;;;;;5055516;28;20024;-57
2023/11/02 01:49:02;;;;;;;16.30;6.22;;;12.50;94.70;;;;;;5054907;28;20045;-56
2023/11/02 01:51:33;;;;;;;20.40;6.22;;;12.50;94.80;;;;;;5071861;28;20040;-57
2023/11/02 01:54:13;;;;;;;25.05;6.13;;;12.50;94.80;;;;;;5088775;28;20087;-56
2023/11/02 01:57:03;;;;;;;20.77;6.28;;;12.50;95.10;;;;;;5071154;28;20025;-56
2023/11/02 01:59:34;;;;;;;18.42;5.72;;;12.40;94.80;;;;;;5076104;28;20040;-57
2023/11/02 02:02:16;;;;;;;13.25;5.38;;;12.40;94.80;;;;;;5070647;28;20028;-57
2023/11/02 02:04:47;;;;;;;22.20;5.55;;;12.40;94.80;;;;;;5070902;28;20036;-56
2023/11/02 02:07:15;;;;;;;18.45;5.30;;;12.40;94.80;;;;;;5054065;28;20028;-56
2023/11/02 02:09:58;;;;;;;16.30;5.30;;;12.40;94.80;;;;;;5088478;28;20034;-56
2023/11/02 02:12:51;;;;;;;23.50;5.85;;;12.40;94.80;;;;;;5088259;28;20028;-57
2023/11/02 02:15:33;;;;;;;27.17;6.28;;;12.40;94.90;;;;;;5070029;28;20032;-57
2023/11/02 02:18:06;;;;;;;20.27;5.85;;;12.40;94.90;;;;;;5088336;28;20033;-57
2023/11/02 02:20:32;;;;;;;20.40;6.55;;;12.40;95.00;;;;;;5054459;28;20092;-57
2023/11/02 02:23:19;;;;;;;18.30;5.97;;;12.40;95.00;;;;;;5070181;28;20044;-56
2023/11/02 02:26:04;;;;;;;14.55;5.65;;;12.40;95.00;;;;;;5088219;28;20044;-56
2023/11/02 02:29:08;;;;;;;19.23;5.65;;;12.30;95.00;;;;;;5088191;28;20032;-56
2023/11/02 02:32:13;;;;;;;17.52;6.38;;;12.30;95.00;;;;;;5005286;28;20211;-56
2023/11/02 02:35:17;;;;;;;16.58;6.25;;;12.40;95.00;;;;;;5056084;28;20107;-57
2023/11/02 02:38:04;;;;;;;15.10;5.65;;;12.30;94.90;;;;;;5086571;28;20393;-56
2023/11/02 02:40:34;;;;;;;15.23;6.03;;;12.40;95.00;;;;;;5069751;28;20044;-56
2023/11/02 02:43:03;;;;;;;21.63;6.88;;;12.30;95.00;;;;;;5053175;28;20037;-56
2023/11/02 02:45:29;;;;;;;11.52;5.47;;;12.30;95.00;;;;;;5053172;28;20028;-57
2023/11/02 02:47:55;;;;;;;12.55;5.63;;;12.40;95.10;;;;;;5069700;28;20033;-56
2023/11/02 02:50:21;;;;;;;19.48;5.82;;;12.30;95.10;;;;;;5036606;28;20028;-56
2023/11/02 02:52:48;;;;;;;18.05;5.45;;;12.30;95.20;;;;;;5053114;28;20067;-57
2023/11/02 02:55:13;;;;;;;16.08;5.60;;;12.30;95.20;;;;;;5053190;28;20035;-57
2023/11/02 02:57:43;;;;;;;13.07;4.97;;;12.30;95.30;;;;;;5069577;28;20029;-57
2023/11/02 03:00:09;;;;;;;12.43;5.30;;;12.30;95.30;;;;;;5069763;28;20507;-57
2023/11/02 03:02:34;;;;;;;13.32;5.15;;;12.30;95.40;;;;;;5069538;28;20020;-56
2023/11/02 03:05:00;;;;;;;12.98;4.90;;;12.30;95.40;;;;;;5069320;28;20028;-57
2023/11/02 03:07:28;;;;;;;11.70;5.05;;;12.30;95.40;;;;;;5052810;28;20085;-56
2023/11/02 03:10:02;;;;;;;14.93;5.53;;;12.30;95.40;;;;;;5052827;28;20029;-56
2023/11/02 03:12:29;;;;;;;13.05;5.13;;;12.30;95.40;;;;;;5052617;28;20411;-56
2023/11/02 03:14:59;;;;;;;12.40;4.75;;;12.30;95.40;;;;;;5086925;28;20031;-56
2023/11/02 03:18:06;;;;;;;8.77;4.32;;;12.30;95.40;;;;;;5052936;28;20056;-57
2023/11/02 03:20:32;;;;;;;13.90;4.97;;;12.30;95.40;;;;;;5052890;28;20032;-56
2023/11/02 03:23:48;;;;;;;11.63;4.70;;;12.30;95.50;;;;;;5086791;28;20517;-56
2023/11/02 03:26:38;;;;;;;12.70;4.40;;;12.30;95.40;;;;;;5065728;28;20033;-57
2023/11/02 03:29:21;;;;;;;13.70;4.70;;;12.30;95.50;;;;;;5086811;28;20032;-56
2023/11/02 03:32:14;;;;;;;10.02;5.38;;;12.30;95.50;;;;;;5068895;28;20017;-57
2023/11/02 03:34:49;;;;;;;9.20;5.50;;;12.30;95.60;;;;;;5086769;28;20033;-57
2023/11/02 03:37:18;;;;;;;11.57;5.85;;;12.30;95.50;;;;;;5068804;28;20024;-57
2023/11/02 03:39:56;;;;;;;12.80;4.63;;;12.30;95.50;;;;;;5068945;28;20039;-56
2023/11/02 03:42:40;;;;;;;9.73;4.50;;;12.30;95.50;;;;;;5086705;28;20388;-56
2023/11/02 03:45:24;;;;;;;12.23;5.05;;;12.30;95.50;;;;;;5086537;28;20133;-56
2023/11/02 03:47:58;;;;;;;9.40;4.75;;;12.30;95.60;;;;;;5086638;28;20059;-57
2023/11/02 03:51:01;;;;;;;12.15;4.80;;;12.30;95.60;;;;;;5068227;28;20028;-56
2023/11/02 03:53:46;;;;;;;12.95;4.93;;;12.30;95.70;;;;;;5086338;28;20039;-57
2023/11/02 03:56:24;;;;;;;8.65;4.18;;;12.30;95.70;;;;;;5086606;28;20032;-57
2023/11/02 03:59:07;;;;;;;12.90;4.88;;;12.30;95.70;;;;;;5068451;28;20016;-57
2023/11/02 04:01:57;;;;;;;8.02;4.38;;;12.20;95.70;;;;;;5051783;28;20021;-57
2023/11/02 04:04:40;;;;;;;7.75;4.50;;;12.20;95.70;;;;;;5086516;28;20028;-56
2023/11/02 04:07:17;;;;;;;9.63;4.68;;;12.30;95.70;;;;;;5070201;28;20089;-57
2023/11/02 04:09:49;;;;;;;9.98;4.53;;;12.30;95.70;;;;;;5068242;28;20032;-56
2023/11/02 04:12:30;;;;;;;7.70;4.07;;;12.30;95.70;;;;;;5052177;28;20032;-57
2023/11/02 04:14:57;;;;;;;9.00;4.30;;;12.30;95.70;;;;;;5086094;28;20512;-56
2023/11/02 04:17:23;;;;;;;10.98;4.55;;;12.20;95.70;;;;;;5085878;28;20534;-56
2023/11/02 04:19:49;;;;;;;7.88;4.63;;;12.30;95.80;;;;;;5051652;28;20028;-57
2023/11/02 04:22:14;;;;;;;8.68;4.57;;;12.20;95.70;;;;;;5051296;28;20032;-56
2023/11/02 04:24:41;;;;;;;7.88;5.10;;;12.30;95.80;;;;;;5068047;28;20029;-56
2023/11/02 04:27:07;;;;;;;8.13;4.60;;;12.30;95.80;;;;;;5085943;28;20415;-57
2023/11/02 04:29:33;;;;;;;8.15;4.97;;;12.20;95.70;;;;;;5068146;28;20029;-57
2023/11/02 04:31:59;;;;;;;9.25;5.07;;;12.20;95.70;;;;;;5068009;28;20081;-57
2023/11/02 04:34:24;;;;;;;9.50;4.55;;;12.30;95.70;;;;;;5085964;28;20056;-56
2023/11/02 04:36:50;;;;;;;8.15;4.90;;;12.20;95.70;;;;;;5051470;28;20021;-56
2023/11/02 04:39:15;;;;;;;11.73;4.65;;;12.20;95.70;;;;;;5068037;28;20041;-56
2023/11/02 04:41:41;;;;;;;9.52;4.80;;;12.30;95.80;;;;;;5086015;28;20035;-56
2023/11/02 04:44:06;;;;;;;10.13;4.82;;;12.20;95.70;;;;;;5086042;28;20060;-56
2023/11/02 04:46:32;;;;;;;7.53;4.82;;;12.20;95.80;;;;;;5068128;28;20032;-56
2023/11/02 04:48:57;;;;;;;11.75;4.75;;;12.20;95.70;;;;;;5051304;28;20088;-56
2023/11/02 04:51:23;;;;;;;10.90;4.15;;;12.20;95.70;;;;;;5085910;28;20020;-57
2023/11/02 04:53:50;;;;;;;7.90;4.40;;;12.20;95.70;;;;;;5067763;28;20029;-57
2023/11/02 04:56:18;;;;;;;5.88;3.97;;;12.20;95.70;;;;;;5067935;28;20468;-57
2023/11/02 04:58:44;;;;;;;9.40;4.70;;;12.30;96.00;;;;;;5067971;28;20025;-56
2023/11/02 05:01:09;;;;;;;7.70;4.07;;;12.20;95.70;;;;;;5085665;28;20072;-56
2023/11/02 05:03:35;;;;;;;12.15;4.88;;;12.20;95.70;;;;;;5071352;28;20032;-57
2023/11/02 05:06:00;;;;;;;7.13;4.15;;;12.20;95.70;;;;;;5071492;28;20032;-56
2023/11/02 05:08:26;;;;;;;14.00;4.60;;;12.20;95.70;;;;;;5071464;28;20029;-56
2023/11/02 05:10:51;;;;;;;7.18;3.97;;;12.20;95.70;;;;;;5054996;28;20104;-56
2023/11/02 05:13:17;;;;;;;6.30;3.55;;;12.20;95.70;;;;;;5071599;28;20025;-57
2023/11/02 05:15:42;;;;;;;8.75;4.18;;;12.10;95.70;;;;;;5071376;28;20503;-56
2023/11/02 05:18:08;;;;;;;9.07;3.55;;;12.20;95.70;;;;;;5054776;28;20396;-56
2023/11/02 05:20:34;;;;;;;9.40;3.97;;;12.20;95.70;;;;;;5070936;28;20027;-56
2023/11/02 05:22:59;;;;;;;6.88;3.53;;;12.20;95.70;;;;;;5072729;28;20029;-56
2023/11/02 05:25:25;;;;;;;12.10;3.80;;;12.10;95.70;;;;;;5071614;28;20099;-57
2023/11/02 05:27:51;;;;;;;15.32;3.90;;;12.10;95.70;;;;;;5090151;28;20040;-56
2023/11/02 05:30:17;;;;;;;17.52;4.75;;;12.20;95.70;;;;;;5090375;28;20048;-56
2023/11/02 05:32:43;;;;;;;13.55;4.13;;;12.30;95.70;;;;;;5071027;28;20040;-56
2023/11/02 05:35:09;;;;;;;14.18;4.15;;;12.20;95.70;;;;;;5088997;28;20040;-56
2023/11/02 05:37:35;;;;;;;37.42;7.28;;;12.20;95.70;;;;;;5071169;28;20024;-56
2023/11/02 05:40:01;;;;;;;45.33;6.70;;;12.10;95.70;;;;;;5089048;28;20020;-56
2023/11/02 05:42:26;;;;;;;34.25;6.15;;;12.10;95.70;;;;;;5054085;28;20050;-56
2023/11/02 05:44:52;;;;;;;19.30;5.05;;;12.20;95.80;;;;;;5088808;28;20028;-56
2023/11/02 05:47:17;;;;;;;20.38;5.18;;;12.10;95.70;;;;;;5053411;28;20028;-57
2023/11/02 05:49:43;;;;;;;46.42;8.82;;;12.10;95.80;;;;;;5070869;28;20056;-57
2023/11/02 05:52:08;;;;;;;88.70;11.75;;;12.10;95.80;;;;;;5054105;28;20024;-56
2023/11/02 05:54:34;;;;;;;95.18;12.20;;;12.10;95.80;;;;;;5070846;28;20111;-56
2023/11/02 05:56:59;;;;;;;48.63;8.50;;;12.10;95.80;;;;;;5069262;28;20039;-57
2023/11/02 05:59:25;;;;;;;59.70;8.40;;;12.20;95.80;;;;;;5070077;28;20017;-57
2023/11/02 06:01:51;;;;;;;63.53;10.00;;;12.10;95.80;;;;;;5047346;28;20021;-57
2023/11/02 06:04:17;;;;;;;62.72;9.60;;;12.10;95.90;;;;;;5050480;28;20028;-57
2023/11/02 06:06:42;;;;;;;54.33;9.70;;;12.10;95.90;;;;;;5066208;28;20036;-56
2023/11/02 06:09:08;;;;;;;80.28;9.57;;;12.10;95.90;;;;;;5052773;28;20024;-57
2023/11/02 06:11:33;;;;;;;61.08;11.98;;;12.20;95.90;;;;;;5053491;28;20082;-57
2023/11/02 06:13:59;;;;;;;65.78;11.27;;;12.10;95.90;;;;;;5053015;28;20028;-57
2023/11/02 06:16:25;;;;;;;56.92;11.25;;;12.10;96.00;;;;;;5088058;28;20075;-57
2023/11/02 06:18:51;;;;;;;75.13;11.00;;;12.10;96.00;;;;;;5052157;28;20350;-57
2023/11/02 06:21:16;;;;;;;85.40;14.07;;;12.10;96.10;;;;;;5087931;28;20078;-57
2023/11/02 06:23:42;;;;;;;88.43;14.82;;;12.10;96.10;;;;;;5070036;28;20021;-57
2023/11/02 06:26:07;;;;;;;78.95;13.77;;;12.10;96.20;;;;;;5087420;28;20044;-57
2023/11/02 06:28:33;;;;;;;95.10;15.07;;;12.10;96.10;;;;;;5069364;28;20027;-57
2023/11/02 06:31:01;;;;;;;104.47;17.30;;;12.10;96.10;;;;;;5053714;28;20379;-57
2023/11/02 06:33:29;;;;;;;115.28;17.42;;;12.10;96.50;;;;;;5070538;28;20028;-57
2023/11/02 06:35:56;;;;;;;105.30;16.50;;;12.10;96.20;;;;;;5052040;28;20024;-57
2023/11/02 06:38:22;;;;;;;94.97;16.42;;;12.10;96.30;;;;;;5068386;28;20058;-57
2023/11/02 06:40:48;;;;;;;92.75;13.50;;;12.10;96.30;;;;;;5068437;28;20112;-57
2023/11/02 06:43:13;;;;;;;71.05;13.93;;;12.10;96.30;;;;;;5069680;28;20384;-57
2023/11/02 06:45:39;;;;;;;76.90;13.40;;;12.00;96.30;;;;;;5069606;28;20029;-57
2023/11/02 06:48:05;;;;;;;82.57;12.63;;;12.10;96.30;;;;;;5086793;28;20032;-57
2023/11/02 06:50:30;;;;;;;69.95;11.65;;;12.10;96.40;;;;;;5086610;28;20482;-57
2023/11/02 06:52:56;;;;;;;71.10;11.98;;;12.00;96.40;;;;;;5087292;28;20086;-57
2023/11/02 06:55:21;;;;;;;75.60;11.93;;;12.00;96.40;;;;;;5069301;28;20063;-57
2023/11/02 06:57:47;;;;;;;66.47;11.10;;;12.00;96.40;;;;;;5068550;28;20035;-57
2023/11/02 07:00:14;;;;;;;74.20;11.18;;;12.10;96.40;;;;;;5068267;28;20090;-57
2023/11/02 07:02:39;;;;;;;59.67;10.90;;;12.00;96.40;;;;;;5075476;28;20024;-57
2023/11/02 07:05:05;;;;;;;68.75;10.52;;;11.90;96.40;;;;;;5088627;28;20459;-57
2023/11/02 07:07:35;;;;;;;63.60;10.35;;;12.00;96.50;;;;;;5092068;28;20025;-57
2023/11/02 07:10:04;;;;;;;53.65;9.73;;;12.00;96.50;;;;;;5052142;28;20128;-57
2023/11/02 07:12:30;;;;;;;51.60;8.75;;;12.00;96.50;;;;;;5079509;28;20059;-56
2023/11/02 07:14:55;;;;;;;43.78;8.38;;;12.00;96.50;;;;;;5072271;28;20033;-57
2023/11/02 07:17:22;;;;;;;54.05;9.23;;;11.90;96.40;;;;;;5047599;28;20074;-57
2023/11/02 07:19:47;;;;;;;51.17;8.82;;;12.00;96.40;;;;;;5049189;28;20109;-57
2023/11/02 07:22:13;;;;;;;52.63;8.88;;;11.90;96.40;;;;;;5066626;28;20033;-57
2023/11/02 07:24:39;;;;;;;58.88;9.40;;;12.00;96.40;;;;;;5032856;28;20025;-57
2023/11/02 07:27:04;;;;;;;49.78;8.38;;;11.90;96.30;;;;;;5083906;28;20028;-57
2023/11/02 07:29:30;;;;;;;48.38;9.90;;;12.00;96.30;;;;;;5061444;28;20033;-57
2023/11/02 07:31:56;;;;;;;51.00;8.07;;;12.00;96.30;;;;;;5051886;28;20507;-57
2023/11/02 07:34:22;;;;;;;34.47;7.20;;;11.90;96.30;;;;;;5083946;28;20024;-57
2023/11/02 07:36:49;;;;;;;39.78;7.38;;;11.90;96.30;;;;;;5083031;28;20024;-57
2023/11/02 07:39:16;;;;;;;29.42;7.43;;;11.90;96.30;;;;;;5085224;28;20047;-57
2023/11/02 07:41:42;;;;;;;38.45;6.32;;;11.90;96.40;;;;;;5068975;28;20028;-57
2023/11/02 07:44:07;;;;;;;39.03;7.28;;;11.90;96.40;;;;;;5085951;28;20084;-57
2023/11/02 07:46:33;;;;;;;31.90;7.38;;;11.90;96.40;;;;;;5084324;28;20048;-57
2023/11/02 07:48:58;;;;;;;36.90;6.68;;;11.90;96.50;;;;;;5084976;28;20025;-57
2023/11/02 07:51:24;;;;;;;31.08;7.13;;;11.90;96.50;;;;;;5067624;28;20028;-57
2023/11/02 07:53:50;;;;;;;53.78;7.35;;;11.90;96.50;;;;;;5053071;28;20020;-57
2023/11/02 07:56:15;;;;;;;36.50;7.53;;;11.90;96.60;;;;;;5083573;28;20078;-57
2023/11/02 07:58:42;;;;;;;30.52;6.28;;;11.90;96.60;;;;;;5102030;28;20115;-57
2023/11/02 08:01:10;;;;;;;37.55;6.80;;;11.90;96.60;;;;;;5093608;28;20034;-57
2023/11/02 08:03:36;;;;;;;37.63;6.97;;;11.90;96.60;;;;;;5057074;28;20064;-57
2023/11/02 08:06:02;;;;;;;42.22;7.25;;;11.90;96.60;;;;;;5072276;28;20032;-57
2023/11/02 08:08:27;;;;;;;32.13;5.45;;;11.90;96.60;;;;;;5084511;28;20032;-57
2023/11/02 08:10:54;;;;;;;31.48;7.15;;;11.90;96.60;;;;;;5070698;28;20137;-57
2023/11/02 08:13:19;;;;;;;27.65;5.57;;;11.90;96.70;;;;;;5060363;28;20028;-58
2023/11/02 08:15:45;;;;;;;34.25;6.35;;;11.90;96.70;;;;;;5092665;28;20043;-57
2023/11/02 08:18:11;;;;;;;36.42;6.15;;;11.90;96.80;;;;;;5084460;28;20032;-58
2023/11/02 08:20:36;;;;;;;24.70;5.30;;;11.90;96.80;;;;;;5071290;28;20323;-58
2023/11/02 08:23:05;;;;;;;30.05;6.35;;;11.90;96.80;;;;;;5061378;28;20036;-58
2023/11/02 08:25:30;;;;;;;38.55;6.38;;;11.90;96.80;;;;;;5081054;28;20029;-58
2023/11/02 08:27:59;;;;;;;43.28;7.38;;;11.90;96.90;;;;;;5077325;28;20040;-57
2023/11/02 08:30:25;;;;;;;36.15;7.05;;;11.90;97.00;;;;;;5085099;28;20033;-58
2023/11/02 08:32:55;;;;;;;45.60;8.10;;;11.90;97.00;;;;;;5065886;28;20035;-58
2023/11/02 08:35:21;;;;;;;34.10;6.43;;;11.90;97.10;;;;;;5077298;28;20032;-58
2023/11/02 08:37:51;;;;;;;48.13;8.65;;;12.00;97.10;;;;;;5086333;28;20459;-58
2023/11/02 08:40:18;;;;;;;38.63;5.35;;;12.00;97.10;;;;;;5085398;28;20032;-58
2023/11/02 08:42:44;;;;;;;43.38;5.80;;;11.90;97.10;;;;;;5068770;28;20532;-58
2023/11/02 08:45:12;;;;;;;30.70;5.10;;;12.00;97.20;;;;;;5067845;28;20033;-58
2023/11/02 08:47:37;;;;;;;47.35;6.10;;;12.00;97.20;;;;;;5069011;28;20103;-58
2023/11/02 08:50:03;;;;;;;29.00;5.60;;;11.90;97.20;;;;;;5070057;28;20063;-58
2023/11/02 08:52:28;;;;;;;46.60;7.68;;;11.90;97.20;;;;;;5068049;28;20032;-58
2023/11/02 08:54:54;;;;;;;56.97;9.48;;;12.00;97.30;;;;;;5068309;28;20032;-59
2023/11/02 08:57:23;;;;;;;63.05;9.32;;;12.00;97.30;;;;;;5088649;28;20038;-58
2023/11/02 08:59:48;;;;;;;89.18;11.90;;;12.00;97.40;;;;;;5055275;28;20082;-58
2023/11/02 09:02:14;;;;;;;47.90;9.50;;;12.00;97.40;;;;;;5070828;28;20029;-58
2023/11/02 09:04:40;;;;;;;51.92;9.30;;;12.00;97.40;;;;;;5087912;28;20032;-58
2023/11/02 09:07:06;;;;;;;59.75;9.02;;;12.00;97.40;;;;;;5089188;28;20029;-58
2023/11/02 09:09:31;;;;;;;54.28;7.78;;;12.00;97.50;;;;;;5088746;28;20028;-58
2023/11/02 09:11:57;;;;;;;35.80;7.03;;;12.10;97.50;;;;;;5070252;28;20040;-58
2023/11/02 09:14:23;;;;;;;44.13;7.50;;;12.00;97.40;;;;;;5069838;28;20056;-58
2023/11/02 09:16:48;;;;;;;60.20;9.30;;;12.10;97.50;;;;;;5087989;28;20024;-58
2023/11/02 09:19:14;;;;;;;47.47;7.15;;;12.10;97.50;;;;;;5071548;28;20051;-58
2023/11/02 09:21:42;;;;;;;52.55;9.00;;;12.00;97.50;;;;;;5071160;28;20059;-58
2023/11/02 09:24:08;;;;;;;73.13;11.60;;;12.10;97.60;;;;;;5068267;28;20020;-58
2023/11/02 09:26:35;;;;;;;70.68;9.70;;;12.10;97.60;;;;;;5088720;28;20039;-58
2023/11/02 09:29:03;;;;;;;66.75;12.13;;;12.10;97.70;;;;;;5088693;28;20027;-58
2023/11/02 09:31:29;;;;;;;80.28;13.70;;;12.10;97.80;;;;;;5070534;28;20481;-59
2023/11/02 09:34:00;;;;;;;87.82;12.05;;;12.10;97.80;;;;;;5063715;28;20530;-58
2023/11/02 09:36:25;;;;;;;68.95;11.38;;;12.10;97.90;;;;;;5086142;28;20119;-58
2023/11/02 09:38:51;;;;;;;63.30;9.45;;;12.10;98.00;;;;;;5070401;28;20082;-59
2023/11/02 09:41:16;;;;;;;69.03;10.50;;;12.20;98.00;;;;;;5077249;28;20028;-58
2023/11/02 09:43:42;;;;;;;48.40;8.13;;;12.10;97.90;;;;;;5079498;28;20080;-58
2023/11/02 09:46:08;;;;;;;46.05;8.68;;;12.20;97.90;;;;;;5064967;28;20096;-58
2023/11/02 09:48:33;;;;;;;72.65;10.10;;;12.20;98.10;;;;;;5084592;28;20031;-58
2023/11/02 09:50:59;;;;;;;63.55;9.75;;;12.20;97.80;;;;;;5073694;28;20033;-59
2023/11/02 09:53:26;;;;;;;46.97;7.57;;;12.10;97.80;;;;;;5094752;28;20027;-58
2023/11/02 09:55:52;;;;;;;52.60;8.02;;;12.20;97.90;;;;;;5049820;28;20036;-59
2023/11/02 09:58:19;;;;;;;43.60;8.13;;;12.20;98.00;;;;;;5094414;28;20028;-58
2023/11/02 10:00:48;;;;;;;68.70;11.13;;;12.20;98.00;;;;;;5082831;28;20054;-59
2023/11/02 10:03:14;;;;;;;70.90;12.02;;;12.20;98.10;;;;;;5074249;28;20028;-59
2023/11/02 10:05:40;;;;;;;96.30;11.75;;;12.30;98.50;;;;;;5076446;28;20050;-59
2023/11/02 10:08:05;;;;;;;70.03;11.93;;;12.20;98.60;;;;;;5074338;28;20032;-59
2023/11/02 10:10:32;;;;;;;96.75;13.55;;;12.20;99.00;;;;;;5069972;28;20777;-59
2023/11/02 10:12:58;;;;;;;75.90;10.57;;;12.30;99.00;;;;;;5080771;28;20025;-59
2023/11/02 10:15:24;;;;;;;64.78;9.27;;;12.30;99.00;;;;;;5055953;28;20025;-58
2023/11/02 10:17:50;;;;;;;64.35;9.13;;;12.30;98.90;;;;;;5062331;28;20369;-59
2023/11/02 10:20:17;;;;;;;50.00;8.32;;;12.30;98.70;;;;;;5042592;28;20040;-58
2023/11/02 10:22:44;;;;;;;49.60;9.15;;;12.30;98.50;;;;;;5090540;28;20042;-58
2023/11/02 10:25:15;;;;;;;49.75;8.50;;;12.40;98.50;;;;;;5052447;28;20115;-59
2023/11/02 10:27:44;;;;;;;48.35;9.18;;;12.30;98.60;;;;;;5084669;28;20040;-59
2023/11/02 10:30:11;;;;;;;45.35;8.63;;;12.40;98.70;;;;;;5092733;28;20030;-59
2023/11/02 10:32:37;;;;;;;36.15;7.93;;;12.40;98.70;;;;;;5058264;28;20056;-57
2023/11/02 10:35:03;;;;;;;37.88;6.82;;;12.40;98.60;;;;;;5095837;28;20115;-58
2023/11/02 10:37:33;;;;;;;44.00;7.28;;;12.40;98.60;;;;;;5079961;28;20024;-58
2023/11/02 10:39:59;;;;;;;45.50;7.93;;;12.60;98.60;;;;;;5075655;28;20062;-59
2023/11/02 10:42:28;;;;;;;52.92;7.70;;;12.40;98.60;;;;;;5077441;28;20013;-58
2023/11/02 10:44:54;;;;;;;43.88;6.47;;;12.40;98.80;;;;;;5053239;28;20108;-59
2023/11/02 10:47:20;;;;;;;55.28;8.88;;;12.40;98.70;;;;;;5066622;28;20024;-59
2023/11/02 10:49:46;;;;;;;31.98;6.97;;;12.40;98.80;;;;;;5038625;28;20033;-59
2023/11/02 10:52:13;;;;;;;45.40;6.88;;;12.40;99.00;;;;;;5064662;28;20025;-58
2023/11/02 10:55:07;;;;;;;49.55;7.95;;;12.40;99.00;;;;;;5051832;28;20032;-53
2023/11/02 10:57:33;;;;;;;59.85;9.75;;;12.40;99.30;;;;;;5050064;28;20056;-53
2023/11/02 11:00:04;;;;;;;72.28;10.45;;;12.40;99.20;;;;;;5039514;28;20033;-54
2023/11/02 11:02:29;;;;;;;85.00;13.98;;;12.40;99.20;;;;;;5056075;28;20101;-54
2023/11/02 11:04:55;;;;;;;87.35;13.02;;;12.40;99.30;;;;;;5049499;28;20040;-53
2023/11/02 11:07:21;;;;;;;78.70;9.85;;;12.50;99.30;;;;;;5078655;28;20020;-54
2023/11/02 11:09:50;;;;;;;61.70;9.38;;;12.50;99.40;;;;;;5045395;28;20032;-53
2023/11/02 11:12:15;;;;;;;64.70;9.13;;;12.50;99.40;;;;;;5061807;28;20028;-54
2023/11/02 11:14:41;;;;;;;61.38;9.30;;;12.50;99.40;;;;;;5049381;28;20032;-54
2023/11/02 11:17:07;;;;;;;41.17;7.95;;;12.50;99.50;;;;;;5051431;28;20035;-53
2023/11/02 11:19:33;;;;;;;48.78;8.15;;;12.50;99.60;;;;;;5066964;28;20029;-54
2023/11/02 11:22:02;;;;;;;55.17;8.27;;;12.60;99.70;;;;;;5051111;28;20036;-53
2023/11/02 11:24:31;;;;;;;52.50;7.30;;;12.50;99.70;;;;;;5035023;28;20028;-53
2023/11/02 11:26:58;;;;;;;35.55;7.22;;;12.50;99.40;;;;;;5062839;28;20118;-53
2023/11/02 11:29:34;;;;;;;46.58;7.45;;;12.50;99.30;;;;;;5047516;28;20047;-54
2023/11/02 11:31:59;;;;;;;;;;;12.50;99.20;;;;;;5054491;28;20045;-53
2023/11/02 11:34:26;;;;;;;50.33;8.05;;;12.50;99.30;;;;;;5063923;28;19909;-54
2023/11/02 11:36:51;;;;;;;49.88;8.75;;;12.50;99.50;;;;;;5049469;28;20520;-54
2023/11/02 11:39:34;;;;;;;55.78;8.93;;;12.60;99.50;;;;;;5051317;28;20029;-54
2023/11/02 11:42:00;;;;;;;66.63;8.48;;;12.50;99.30;;;;;;5051207;28;20028;-54
2023/11/02 11:44:26;;;;;;;50.65;8.32;;;12.50;99.30;;;;;;5085349;28;20028;-54
2023/11/02 11:46:56;;;;;;;73.68;9.32;;;12.60;99.30;;;;;;5051366;28;20036;-54
2023/11/02 11:49:38;;;;;;;121.05;14.27;;;12.60;99.50;;;;;;5068536;28;20070;-54
2023/11/02 11:52:03;;;;;;;90.00;11.80;;;12.60;99.70;;;;;;5085619;28;20036;-54
2023/11/02 11:54:30;;;;;;;103.53;12.27;;;12.60;99.80;;;;;;5050364;28;20024;-54
2023/11/02 11:56:55;;;;;;;75.88;8.88;;;12.60;99.90;;;;;;5067711;28;20088;-54
2023/11/02 11:59:55;;;;;;;81.50;10.68;;;12.60;99.90;;;;;;5068023;28;20521;-54
2023/11/02 12:02:35;;;;;;;102.93;13.07;;;12.60;99.60;;;;;;5085998;28;20039;-54
2023/11/02 12:05:01;;;;;;;84.97;12.98;;;12.60;99.60;;;;;;5067056;28;20069;-54
2023/11/02 12:07:36;;;;;;;120.45;13.27;;;12.60;99.70;;;;;;5067145;28;20545;-54
2023/11/02 12:10:03;;;;;;;107.03;14.05;;;12.60;99.70;;;;;;5068934;28;20028;-54
2023/11/02 12:12:29;;;;;;;105.28;13.55;;;12.60;99.70;;;;;;5067965;28;20031;-54
2023/11/02 12:14:55;;;;;;;148.40;16.90;;;12.70;99.70;;;;;;5085062;28;20040;-54
2023/11/02 12:17:21;;;;;;;107.47;14.27;;;12.70;99.80;;;;;;5067052;28;20032;-54
2023/11/02 12:19:46;;;;;;;101.03;11.95;;;12.70;99.80;;;;;;5066374;28;20036;-54
2023/11/02 12:22:12;;;;;;;96.30;12.65;;;12.70;99.90;;;;;;5051076;28;20036;-54
2023/11/02 12:24:38;;;;;;;97.35;14.32;;;12.70;99.60;;;;;;5050703;28;20025;-54
2023/11/02 12:27:22;;;;;;;75.65;12.02;;;12.70;99.60;;;;;;5070297;28;20032;-54
2023/11/02 12:30:00;;;;;;;96.07;14.23;;;12.70;99.60;;;;;;5066659;28;20029;-54
2023/11/02 12:32:25;;;;;;;106.60;14.30;;;12.70;99.70;;;;;;5043015;28;20017;-54
2023/11/02 12:34:55;;;;;;;123.95;15.25;;;12.70;99.60;;;;;;5064950;28;20404;-54
2023/11/02 12:37:21;;;;;;;111.95;13.90;;;12.70;99.60;;;;;;5098373;28;20024;-54
2023/11/02 12:39:57;;;;;;;132.60;15.05;;;12.70;99.50;;;;;;5076675;28;20432;-53
2023/11/02 12:42:23;;;;;;;107.55;14.05;;;12.70;99.40;;;;;;5081181;28;20094;-54
2023/11/02 12:44:49;;;;;;;109.07;16.88;;;12.70;99.40;;;;;;5065688;28;20460;-54
2023/11/02 12:47:14;;;;;;;120.43;16.70;;;12.70;99.30;;;;;;5064118;28;20028;-54
2023/11/02 12:49:40;;;;;;;107.65;15.15;;;12.70;99.30;;;;;;5063346;28;20040;-53